createdAt,value
2023-01-13T00:54:26.507Z,30.66
2023-01-13T00:55:27.471Z,30.62
2023-01-13T00:56:39.753Z,30.73
2023-01-13T00:57:27.461Z,30.69
2023-01-13T00:58:27.441Z,30.67
2023-01-13T00:59:27.435Z,30.67
2023-01-13T01:00:27.424Z,30.62
2023-01-13T01:01:27.538Z,30.67
2023-01-13T01:02:27.457Z,30.71
2023-01-13T01:03:27.397Z,30.64
2023-01-13T01:04:27.389Z,30.68
2023-01-13T01:05:27.412Z,30.67
2023-01-13T01:06:27.388Z,30.62
2023-01-13T01:07:27.371Z,30.69
2023-01-13T01:08:27.353Z,30.66
2023-01-13T01:09:27.342Z,30.64
2023-01-13T01:10:27.393Z,30.67
2023-01-13T01:11:27.335Z,30.66
2023-01-13T01:12:27.315Z,30.67
2023-01-13T01:13:27.309Z,30.62
2023-01-13T01:14:27.304Z,30.63
2023-01-13T01:15:27.290Z,30.62
2023-01-13T01:16:27.360Z,30.63
2023-01-13T01:17:27.283Z,30.69
2023-01-13T01:18:27.259Z,30.67
2023-01-13T01:19:27.252Z,30.64
2023-01-13T01:20:27.243Z,30.66
2023-01-13T01:21:27.264Z,30.66
2023-01-13T01:22:27.220Z,30.63
2023-01-13T01:23:27.238Z,30.64
2023-01-13T01:24:27.222Z,30.66
2023-01-13T01:25:27.209Z,30.67
2023-01-13T01:26:27.227Z,30.67
2023-01-13T01:27:27.190Z,30.66
2023-01-13T01:28:27.171Z,30.67
2023-01-13T01:29:27.175Z,30.68
2023-01-13T01:30:27.181Z,30.64
2023-01-13T01:31:27.243Z,30.67
2023-01-13T01:32:27.138Z,30.64
2023-01-13T01:33:27.127Z,30.66
2023-01-13T01:34:27.128Z,30.62
2023-01-13T01:35:27.116Z,30.66
2023-01-13T01:36:27.105Z,30.67
2023-01-13T01:37:27.092Z,30.63
2023-01-13T01:38:27.083Z,30.66
2023-01-13T01:39:27.076Z,30.67
2023-01-13T01:40:27.068Z,30.65
2023-01-13T01:41:27.049Z,30.67
2023-01-13T01:42:27.099Z,30.64
2023-01-13T01:43:27.036Z,30.64
2023-01-13T01:44:27.027Z,30.64
2023-01-13T01:45:27.021Z,30.63
2023-01-13T01:46:27.052Z,30.64
2023-01-13T01:47:27.002Z,30.67
2023-01-13T01:48:26.992Z,30.68
2023-01-13T01:49:26.984Z,30.64
2023-01-13T01:50:26.972Z,30.67
2023-01-13T01:51:26.965Z,30.66
2023-01-13T01:52:26.954Z,30.67
2023-01-13T01:53:26.946Z,30.60
2023-01-13T01:54:26.937Z,30.63
2023-01-13T01:55:26.928Z,30.66
2023-01-13T01:56:26.917Z,30.64
2023-01-13T01:57:26.913Z,30.64
2023-01-13T01:58:26.923Z,30.66
2023-01-13T01:59:26.888Z,30.67
2023-01-13T02:00:26.890Z,30.70
2023-01-13T02:01:27.056Z,30.67
2023-01-13T02:02:26.892Z,30.67
2023-01-13T02:03:26.856Z,30.68
2023-01-13T02:04:26.852Z,30.63
2023-01-13T02:05:26.835Z,30.66
2023-01-13T02:06:26.830Z,30.66
2023-01-13T02:07:26.821Z,30.73
2023-01-13T02:08:26.809Z,30.65
2023-01-13T02:09:26.799Z,30.66
2023-01-13T02:10:26.791Z,30.62
2023-01-13T02:11:26.782Z,30.63
2023-01-13T02:12:26.781Z,30.70
2023-01-13T02:13:26.766Z,30.67
2023-01-13T02:14:26.780Z,30.67
2023-01-13T02:15:26.745Z,30.69
2023-01-13T02:16:26.763Z,30.67
2023-01-13T02:17:26.764Z,30.66
2023-01-13T02:18:26.717Z,30.64
2023-01-13T02:19:26.718Z,30.63
2023-01-13T02:20:26.724Z,30.62
2023-01-13T02:21:26.689Z,30.66
2023-01-13T02:22:26.735Z,30.66
2023-01-13T02:23:26.677Z,30.64
2023-01-13T02:24:26.669Z,30.66
2023-01-13T02:25:26.656Z,30.67
2023-01-13T02:26:26.645Z,30.64
2023-01-13T02:27:26.690Z,30.70
2023-01-13T02:28:26.651Z,30.66
2023-01-13T02:29:26.617Z,30.67
2023-01-13T02:30:26.645Z,30.60
2023-01-13T02:31:26.639Z,30.67
2023-01-13T02:32:26.596Z,30.64
2023-01-13T02:33:26.585Z,30.66
2023-01-13T02:34:26.580Z,30.64
2023-01-13T02:35:26.588Z,30.66
2023-01-13T02:36:26.555Z,30.70
2023-01-13T02:37:26.548Z,30.67
2023-01-13T02:38:26.538Z,30.67
2023-01-13T02:39:26.528Z,30.64
2023-01-13T02:40:26.524Z,30.67
2023-01-13T02:41:26.510Z,30.64
2023-01-13T02:42:26.506Z,30.67
2023-01-13T02:43:26.506Z,30.67
2023-01-13T02:44:26.495Z,30.68
2023-01-13T02:45:26.549Z,30.66
2023-01-13T02:46:26.492Z,30.68
2023-01-13T02:47:26.453Z,30.63
2023-01-13T02:48:26.447Z,30.64
2023-01-13T02:49:26.441Z,30.62
2023-01-13T02:50:26.428Z,30.64
2023-01-13T02:51:26.428Z,30.68
2023-01-13T02:52:26.412Z,30.66
2023-01-13T02:53:26.408Z,30.64
2023-01-13T02:54:26.395Z,30.68
2023-01-13T02:55:26.380Z,30.68
2023-01-13T02:56:26.386Z,30.70
2023-01-13T02:57:26.384Z,30.64
2023-01-13T02:58:26.360Z,30.66
2023-01-13T02:59:26.375Z,30.67
2023-01-13T03:00:26.340Z,30.66
2023-01-13T03:01:26.427Z,30.69
2023-01-13T03:02:26.450Z,30.66
2023-01-13T03:03:26.347Z,30.69
2023-01-13T03:04:26.305Z,30.66
2023-01-13T03:05:26.293Z,30.68
2023-01-13T03:06:26.294Z,30.66
2023-01-13T03:07:26.279Z,30.66
2023-01-13T03:08:26.274Z,30.66
2023-01-13T03:09:26.263Z,30.67
2023-01-13T03:22:26.143Z,30.64
2023-01-13T03:23:26.131Z,30.63
2023-01-13T03:24:26.121Z,30.64
2023-01-13T03:25:26.133Z,30.67
2023-01-13T03:26:26.135Z,30.64
2023-01-13T03:27:26.097Z,30.60
2023-01-13T03:28:26.087Z,30.63
2023-01-13T03:29:26.078Z,30.62
2023-01-13T03:30:26.150Z,30.62
2023-01-13T03:31:26.063Z,30.56
2023-01-13T03:32:26.052Z,30.62
2023-01-13T03:33:26.041Z,30.59
2023-01-13T03:34:26.066Z,30.60
2023-01-13T03:35:26.024Z,30.62
2023-01-13T03:36:26.008Z,30.64
2023-01-13T03:37:26.001Z,30.63
2023-01-13T03:38:25.993Z,30.63
2023-01-13T03:39:25.990Z,30.57
2023-01-13T03:40:25.992Z,30.62
2023-01-13T03:41:25.967Z,30.62
2023-01-13T03:42:25.984Z,30.60
2023-01-13T03:43:25.947Z,30.62
2023-01-13T03:44:25.948Z,30.56
2023-01-13T03:45:25.932Z,30.56
2023-01-13T03:46:25.977Z,30.60
2023-01-13T03:47:25.907Z,30.57
2023-01-13T03:48:25.904Z,30.59
2023-01-13T03:49:25.895Z,30.54
2023-01-13T03:50:25.914Z,30.54
2023-01-13T03:51:25.886Z,30.60
2023-01-13T03:52:25.867Z,30.58
2023-01-13T03:53:25.859Z,30.59
2023-01-13T03:54:25.880Z,30.60
2023-01-13T03:55:25.842Z,30.62
2023-01-13T03:56:25.831Z,30.53
2023-01-13T03:57:25.820Z,30.56
2023-01-13T03:58:25.823Z,30.56
2023-01-13T03:59:25.805Z,30.57
2023-01-13T04:00:25.794Z,30.51
2023-01-13T04:01:25.901Z,30.57
2023-01-13T04:02:25.775Z,30.56
2023-01-13T04:03:25.819Z,30.57
2023-01-13T04:04:25.760Z,30.56
2023-01-13T04:05:25.747Z,30.58
2023-01-13T04:06:25.769Z,30.61
2023-01-13T04:07:25.732Z,30.57
2023-01-13T04:08:25.716Z,30.56
2023-01-13T04:09:25.711Z,30.60
2023-01-13T04:10:25.712Z,30.57
2023-01-13T04:11:25.695Z,30.53
2023-01-13T04:12:25.692Z,30.58
2023-01-13T04:13:25.675Z,30.56
2023-01-13T04:14:25.672Z,30.54
2023-01-13T04:15:25.725Z,30.56
2023-01-13T04:16:25.649Z,30.54
2023-01-13T04:17:25.641Z,30.50
2023-01-13T04:18:25.634Z,30.50
2023-01-13T04:19:25.619Z,30.49
2023-01-13T04:20:25.612Z,30.52
2023-01-13T04:21:25.619Z,30.45
2023-01-13T04:22:25.628Z,30.45
2023-01-13T04:23:25.589Z,30.42
2023-01-13T07:04:24.125Z,32.03
2023-01-13T08:39:23.295Z,31.57
2023-01-13T09:07:26.240Z,31.79
2023-01-13T10:07:23.556Z,31.32
2023-01-13T10:38:22.194Z,30.54
2023-01-13T10:40:22.165Z,30.08
2023-01-13T10:52:22.366Z,29.61
2023-01-13T11:09:21.924Z,29.67
2023-01-13T11:11:21.919Z,29.63
2023-01-13T22:03:15.950Z,31.22
2023-01-13T22:04:15.943Z,31.21
2023-01-13T22:05:15.935Z,31.22
2023-01-13T22:06:16.003Z,31.17
2023-01-13T22:07:15.912Z,31.21
2023-01-13T22:08:15.920Z,31.19
2023-01-13T22:09:15.898Z,31.22
2023-01-13T22:10:15.893Z,31.19
2023-01-13T22:11:15.885Z,31.17
2023-01-13T22:12:15.879Z,31.15
2023-01-13T22:13:15.886Z,31.16
2023-01-13T22:14:15.872Z,31.19
2023-01-13T22:15:15.852Z,31.14
2023-01-13T22:16:15.915Z,31.18
2023-01-13T22:17:15.825Z,31.17
2023-01-13T22:18:15.811Z,31.12
2023-01-13T22:19:15.804Z,31.17
2023-01-13T22:20:15.792Z,31.18
2023-01-13T22:21:15.788Z,31.17
2023-01-13T22:22:15.778Z,31.12
2023-01-13T22:23:15.769Z,31.11
2023-01-13T22:24:15.753Z,31.14
2023-01-13T22:25:15.757Z,31.08
2023-01-13T22:26:15.740Z,31.10
2023-01-13T22:27:15.729Z,31.07
2023-01-13T22:28:15.723Z,31.16
2023-01-13T22:29:15.711Z,31.12
2023-01-13T22:30:15.874Z,31.11
2023-01-13T22:33:15.677Z,31.10
2023-01-13T22:34:15.666Z,31.08
2023-01-13T22:35:15.661Z,31.07
2023-01-13T22:36:15.660Z,31.05
2023-01-13T22:37:15.644Z,31.08
2023-01-13T22:38:15.630Z,31.10
2023-01-13T22:39:15.624Z,31.03
2023-01-13T22:40:15.615Z,31.06
2023-01-13T22:41:15.609Z,31.02
2023-01-13T22:42:15.598Z,31.07
2023-01-13T22:43:15.584Z,31.01
2023-01-13T22:44:15.577Z,31.08
2023-01-13T22:46:15.631Z,31.03
